Time;durP1;ratioP1;P1;durP2;ratioP2;P2;SDS_P1;SDS_P2;PMS_P1;PMS_P2;Temp;Humidity;BMP_temperature;BMP_pressure;BME280_temperature;BME280_humidity;BME280_pressure;Samples;Min_cycle;Max_cycle;Signal;HPM_P1;HPM_P2
2021/09/22 00:00:38;;;;;;;43.10;40.20;;;;;;;13.08;100.00;103105.23;2009517;71;32888;-69
2021/09/22 00:06:02;;;;;;;44.50;41.50;;;;;;;13.20;100.00;103092.11;1941044;74;33444;-67
2021/09/22 00:11:28;;;;;;;42.20;39.40;;;;;;;12.91;100.00;103100.13;1941095;74;33068;-66
2021/09/22 00:16:53;;;;;;;43.00;40.00;;;;;;;12.72;100.00;103098.02;1941052;74;32985;-68
2021/09/22 00:25:07;;;;;;;42.17;38.93;;;;;;;12.76;100.00;103096.44;2060804;69;32711;-69
2021/09/22 00:27:38;;;;;;;41.57;38.80;;;;;;;12.70;100.00;103106.66;1950441;73;26203;-68
2021/09/22 00:30:12;;;;;;;43.17;40.37;;;;;;;12.76;100.00;103107.59;2030342;71;26190;-68
2021/09/22 00:32:45;;;;;;;42.90;40.10;;;;;;;12.82;100.00;103101.59;2030371;71;26161;-68
2021/09/22 00:35:16;;;;;;;42.27;39.23;;;;;;;12.76;100.00;103101.47;2030439;71;26620;-69
2021/09/22 00:37:46;;;;;;;42.80;39.87;;;;;;;12.71;100.00;103101.90;2030523;70;26749;-69
2021/09/22 00:40:16;;;;;;;40.27;37.63;;;;;;;12.60;100.00;103095.80;2030405;71;26165;-68
2021/09/22 00:42:47;;;;;;;42.63;39.93;;;;;;;12.60;100.00;103099.98;2030347;70;26671;-68
2021/09/22 00:45:18;;;;;;;43.27;40.07;;;;;;;12.77;100.00;103098.14;2030484;71;26246;-69
2021/09/22 00:47:48;;;;;;;42.80;40.00;;;;;;;12.61;100.00;103095.57;2030338;71;26282;-68
2021/09/22 00:50:21;;;;;;;40.10;37.37;;;;;;;12.61;100.00;103101.69;2030429;70;26588;-68
2021/09/22 00:52:54;;;;;;;40.73;37.93;;;;;;;12.61;100.00;103099.75;2030410;70;26229;-68
2021/09/22 00:55:24;;;;;;;43.97;41.00;;;;;;;12.54;100.00;103096.77;2030492;70;26271;-69
2021/09/22 00:57:56;;;;;;;41.93;38.90;;;;;;;12.44;100.00;103093.22;2030413;71;26198;-68
2021/09/22 01:00:30;;;;;;;44.33;41.23;;;;;;;12.62;100.00;103095.03;2030410;71;26225;-69
2021/09/22 01:03:00;;;;;;;44.50;41.30;;;;;;;12.65;100.00;103098.17;2030401;71;26759;-68
2021/09/22 01:05:31;;;;;;;41.87;38.80;;;;;;;12.74;100.00;103099.49;2030484;70;26840;-69
2021/09/22 01:08:03;;;;;;;42.13;39.10;;;;;;;12.77;100.00;103094.81;2030465;71;26270;-68
2021/09/22 01:10:34;;;;;;;42.97;39.87;;;;;;;12.83;100.00;103094.38;2030510;71;26170;-67
2021/09/22 01:13:04;;;;;;;43.47;40.30;;;;;;;12.68;100.00;103092.09;2030463;70;26226;-68
2021/09/22 01:15:38;;;;;;;42.83;39.83;;;;;;;12.63;100.00;103102.27;2030446;70;26165;-68
2021/09/22 01:18:11;;;;;;;43.30;40.23;;;;;;;12.66;100.00;103102.62;2030432;70;26247;-68
2021/09/22 01:20:43;;;;;;;43.63;40.67;;;;;;;12.66;100.00;103101.23;2030585;71;26157;-68
2021/09/22 01:23:15;;;;;;;44.17;40.77;;;;;;;12.79;100.00;103096.79;1993408;70;26253;-68
2021/09/22 01:25:48;;;;;;;44.00;41.03;;;;;;;12.49;100.00;103098.92;1980141;72;26302;-68
2021/09/22 01:28:21;;;;;;;45.70;42.50;;;;;;;12.37;100.00;103099.44;1980147;72;26619;-68
2021/09/22 01:30:52;;;;;;;43.17;40.17;;;;;;;12.29;100.00;103095.62;1890881;76;26283;-69
2021/09/22 01:33:24;;;;;;;44.40;41.33;;;;;;;12.42;100.00;103096.78;1937566;74;26227;-68
2021/09/22 01:35:55;;;;;;;42.57;39.47;;;;;;;12.43;100.00;103088.73;1890357;76;26261;-68
2021/09/22 01:38:28;;;;;;;43.20;40.17;;;;;;;12.48;100.00;103090.79;1936719;74;26259;-68
2021/09/22 01:41:01;;;;;;;43.77;40.47;;;;;;;12.48;100.00;103086.06;1890475;76;26268;-69
2021/09/22 01:43:33;;;;;;;42.80;39.90;;;;;;;12.42;100.00;103068.91;1936733;74;26656;-70
2021/09/22 01:46:05;;;;;;;43.77;40.77;;;;;;;12.29;100.00;103073.33;1890170;76;26267;-68
2021/09/22 01:48:36;;;;;;;43.07;40.17;;;;;;;12.31;100.00;103069.23;1936648;74;26264;-68
2021/09/22 01:51:09;;;;;;;44.87;41.60;;;;;;;12.53;100.00;103068.06;1889978;76;26212;-68
2021/09/22 01:53:41;;;;;;;42.23;39.30;;;;;;;12.49;100.00;103068.80;1936886;74;26233;-68
2021/09/22 01:56:11;;;;;;;43.27;40.27;;;;;;;12.36;100.00;103069.05;1890119;76;26286;-68
2021/09/22 01:58:42;;;;;;;45.17;41.97;;;;;;;12.21;100.00;103065.34;1936779;74;26300;-68
2021/09/22 02:01:14;;;;;;;44.97;42.10;;;;;;;12.30;100.00;103060.56;1890053;76;26281;-68
2021/09/22 02:03:47;;;;;;;41.10;38.60;;;;;;;12.17;100.00;103062.19;1936694;74;26734;-68
2021/09/22 02:06:18;;;;;;;43.10;40.30;;;;;;;12.10;100.00;103062.02;1936864;74;26257;-69
2021/09/22 02:08:48;;;;;;;43.10;40.10;;;;;;;12.12;100.00;103069.03;1890131;76;26192;-68
2021/09/22 02:11:18;;;;;;;43.80;40.67;;;;;;;12.14;100.00;103066.02;1936819;74;26244;-68
2021/09/22 02:13:48;;;;;;;41.80;38.80;;;;;;;12.07;100.00;103061.09;1890176;76;26235;-68
2021/09/22 02:19:14;;;;;;;44.23;41.03;;;;;;;12.22;100.00;103047.53;1940718;74;32978;-68
2021/09/22 02:24:43;;;;;;;44.80;41.57;;;;;;;12.23;100.00;103043.67;1940979;74;33648;-68
2021/09/22 02:30:11;;;;;;;45.80;42.57;;;;;;;12.25;100.00;103033.95;1940879;74;32996;-68
2021/09/22 02:35:36;;;;;;;43.57;40.37;;;;;;;12.28;100.00;103023.71;1941038;74;33580;-68
2021/09/22 02:41:01;;;;;;;42.17;39.17;;;;;;;12.32;100.00;103024.09;1940675;74;32991;-68
2021/09/22 02:46:25;;;;;;;46.10;42.73;;;;;;;12.09;100.00;103014.34;1940773;74;32985;-67
2021/09/22 02:52:10;;;;;;;45.03;41.83;;;;;;;12.26;100.00;103006.41;2009639;71;32962;-69
2021/09/22 02:57:35;;;;;;;44.47;41.33;;;;;;;12.05;100.00;103017.31;1940736;74;33110;-68
2021/09/22 03:03:02;;;;;;;43.83;40.63;;;;;;;12.26;100.00;103004.16;1940931;74;32976;-68
2021/09/22 03:08:28;;;;;;;46.23;42.70;;;;;;;12.21;100.00;103005.42;1940916;74;33586;-70
2021/09/22 03:13:59;;;;;;;46.50;43.10;;;;;;;12.26;100.00;102996.65;1940933;74;33594;-68
2021/09/22 03:19:23;;;;;;;45.90;42.53;;;;;;;12.18;100.00;102987.81;1940660;74;33078;-68
2021/09/22 03:24:48;;;;;;;46.97;43.70;;;;;;;12.09;100.00;103002.66;1940806;74;33669;-67
2021/09/22 03:30:14;;;;;;;47.70;44.30;;;;;;;12.17;100.00;103000.89;1940783;74;33086;-68
2021/09/22 03:35:40;;;;;;;44.90;41.40;;;;;;;12.12;100.00;102997.14;1940826;74;32992;-68
2021/09/22 03:41:06;;;;;;;48.10;44.40;;;;;;;12.00;100.00;103011.08;1940958;74;33074;-68
2021/09/22 03:46:31;;;;;;;45.27;42.07;;;;;;;12.08;100.00;103002.34;1940726;74;33102;-67
2021/09/22 03:51:56;;;;;;;47.43;43.73;;;;;;;11.97;100.00;103003.75;1940916;74;33553;-68
2021/09/22 03:57:21;;;;;;;46.83;43.17;;;;;;;11.74;100.00;103001.80;1940726;74;32988;-69
2021/09/22 04:03:05;;;;;;;46.33;42.93;;;;;;;12.24;100.00;102992.39;1843935;78;33373;-70
2021/09/22 04:08:30;;;;;;;49.23;45.27;;;;;;;12.28;100.00;102983.84;1941058;74;33116;-67
2021/09/22 04:13:56;;;;;;;46.97;43.57;;;;;;;11.99;100.00;102991.27;1940978;74;33566;-70
2021/09/22 04:19:20;;;;;;;45.13;41.93;;;;;;;11.58;100.00;102985.23;1940753;74;33000;-68
2021/09/22 04:24:45;;;;;;;48.43;44.93;;;;;;;11.85;100.00;102994.02;1940833;74;33567;-67
2021/09/22 04:30:12;;;;;;;50.03;46.10;;;;;;;11.89;100.00;102998.55;1940714;74;33074;-68
2021/09/22 04:35:36;;;;;;;50.57;46.67;;;;;;;12.03;100.00;103002.22;1940851;74;33041;-67
2021/09/22 04:41:02;;;;;;;44.17;41.17;;;;;;;11.89;100.00;102998.01;1940787;74;33038;-68
2021/09/22 04:46:28;;;;;;;43.97;40.77;;;;;;;11.34;100.00;102994.60;1940761;74;32987;-69
2021/09/22 04:51:52;;;;;;;44.37;41.37;;;;;;;11.71;100.00;102999.47;1940963;74;33143;-67
2021/09/22 04:57:17;;;;;;;48.00;44.37;;;;;;;11.20;100.00;103004.27;1941066;74;33586;-68
2021/09/22 05:02:42;;;;;;;44.40;41.20;;;;;;;11.28;100.00;103009.48;1940873;74;33081;-67
2021/09/22 05:08:07;;;;;;;46.17;42.97;;;;;;;11.14;100.00;103004.66;1940842;74;33069;-69
2021/09/22 05:13:33;;;;;;;43.57;40.60;;;;;;;11.29;100.00;102998.12;1940824;74;33138;-67
2021/09/22 05:18:57;;;;;;;45.07;41.80;;;;;;;11.16;100.00;103004.44;1940800;74;33130;-67
2021/09/22 05:24:22;;;;;;;45.70;42.43;;;;;;;11.48;100.00;102996.09;1940801;74;33066;-68
2021/09/22 05:29:47;;;;;;;44.53;41.50;;;;;;;11.15;100.00;102999.95;1940842;74;33009;-67
2021/09/22 05:35:12;;;;;;;44.53;41.33;;;;;;;11.08;100.00;103006.16;1940752;74;33048;-67
2021/09/22 05:40:37;;;;;;;46.77;43.47;;;;;;;11.06;100.00;102987.45;1940944;74;33478;-68
2021/09/22 05:46:02;;;;;;;45.77;42.57;;;;;;;11.08;100.00;102998.64;1940801;74;32996;-67
2021/09/22 05:51:27;;;;;;;46.60;43.27;;;;;;;11.12;100.00;103004.60;1940748;74;32992;-69
2021/09/22 05:56:57;;;;;;;47.33;44.03;;;;;;;11.18;100.00;103003.09;1940889;74;32986;-68
2021/09/22 06:02:22;;;;;;;48.77;45.17;;;;;;;11.20;100.00;103002.87;1940754;74;33049;-70
2021/09/22 06:07:46;;;;;;;49.53;45.73;;;;;;;11.26;100.00;103005.53;1940851;74;33048;-68
2021/09/22 06:13:11;;;;;;;48.80;45.10;;;;;;;11.29;100.00;103004.23;1941020;74;33424;-68
2021/09/22 06:18:37;;;;;;;47.60;44.30;;;;;;;11.39;100.00;103003.09;1940872;74;33130;-70
2021/09/22 06:24:02;;;;;;;48.47;44.93;;;;;;;11.49;100.00;102998.34;1941004;74;32987;-67
2021/09/22 06:29:27;;;;;;;50.00;46.07;;;;;;;11.56;100.00;102990.17;1940914;74;32976;-69
2021/09/22 06:34:52;;;;;;;48.40;44.80;;;;;;;11.52;100.00;102993.14;1940967;74;33536;-68
2021/09/22 06:40:18;;;;;;;49.87;46.03;;;;;;;11.76;100.00;102982.92;1940797;74;33104;-67
2021/09/22 06:45:44;;;;;;;46.30;42.80;;;;;;;11.87;100.00;102984.86;1940811;74;32990;-67
2021/09/22 06:51:11;;;;;;;48.20;44.40;;;;;;;11.82;100.00;102990.30;1941041;74;33043;-68
2021/09/22 06:56:35;;;;;;;48.57;45.00;;;;;;;12.14;100.00;102987.46;1941049;74;33104;-69
2021/09/22 07:02:06;;;;;;;50.37;46.37;;;;;;;12.01;100.00;102992.42;1940984;74;32986;-69
2021/09/22 07:07:31;;;;;;;50.57;46.73;;;;;;;12.22;100.00;102994.59;1940807;74;33136;-67
2021/09/22 07:12:55;;;;;;;53.23;49.03;;;;;;;12.30;100.00;103001.19;1941085;74;33515;-70
2021/09/22 07:18:20;;;;;;;54.00;50.00;;;;;;;12.63;100.00;103001.89;1941071;74;33558;-69
2021/09/22 07:24:05;;;;;;;55.40;51.30;;;;;;;12.68;100.00;102998.67;2009846;71;32874;-68
2021/09/22 07:29:30;;;;;;;58.47;54.03;;;;;;;12.70;100.00;103003.47;1941042;74;33046;-68
2021/09/22 07:34:55;;;;;;;58.83;54.10;;;;;;;12.90;100.00;103004.97;1941178;74;33548;-75
2021/09/22 07:40:20;;;;;;;59.37;54.70;;;;;;;13.05;100.00;103009.47;1941092;74;33059;-72
2021/09/22 07:45:45;;;;;;;56.27;51.97;;;;;;;13.42;100.00;103005.72;1941131;74;33022;-68
2021/09/22 07:51:10;;;;;;;54.77;50.57;;;;;;;13.89;100.00;103002.90;1941041;74;33109;-69
2021/09/22 07:56:34;;;;;;;55.27;50.97;;;;;;;14.25;100.00;103001.47;1941106;74;32971;-70
2021/09/22 08:02:06;;;;;;;53.70;49.30;;;;;;;14.65;100.00;103005.41;1941046;74;32978;-69
2021/09/22 08:07:30;;;;;;;51.43;47.37;;;;;;;14.82;100.00;103006.74;1941067;74;33498;-69
2021/09/22 08:12:56;;;;;;;52.03;47.83;;;;;;;15.14;100.00;103001.24;1940902;74;33010;-68
2021/09/22 08:18:20;;;;;;;51.23;47.27;;;;;;;15.43;100.00;103002.66;1940794;74;32959;-68
2021/09/22 08:23:46;;;;;;;51.37;47.57;;;;;;;15.58;100.00;102999.16;1941115;74;33546;-67
2021/09/22 08:29:11;;;;;;;52.63;48.53;;;;;;;15.73;100.00;102999.31;1941122;74;32993;-67
2021/09/22 08:34:36;;;;;;;49.83;45.93;;;;;;;16.04;100.00;103006.00;1940935;74;33134;-68
2021/09/22 08:40:00;;;;;;;49.93;46.00;;;;;;;16.08;100.00;103004.34;1940985;74;33121;-68
2021/09/22 08:45:28;;;;;;;48.77;45.07;;;;;;;16.38;100.00;102998.93;1940933;74;33446;-67
2021/09/22 08:50:54;;;;;;;49.47;45.53;;;;;;;16.54;100.00;102988.63;1940887;74;33074;-68
2021/09/22 08:56:19;;;;;;;46.93;43.30;;;;;;;16.67;100.00;102990.96;1941060;74;33598;-67
2021/09/22 09:01:45;;;;;;;47.17;43.53;;;;;;;17.01;100.00;102987.98;1940993;74;33053;-67
2021/09/22 09:07:13;;;;;;;47.13;43.73;;;;;;;16.95;100.00;102991.05;1941189;74;31576;-67
2021/09/22 09:12:39;;;;;;;48.27;44.67;;;;;;;17.25;100.00;102983.54;1940937;74;31140;-68
2021/09/22 09:18:13;;;;;;;51.87;48.43;;;;;;;17.23;100.00;102977.38;1941100;74;33538;-68
2021/09/22 09:23:39;;;;;;;45.83;42.43;;;;;;;17.51;100.00;102968.95;1940868;74;31129;-67
2021/09/22 09:29:05;;;;;;;57.43;53.77;;;;;;;17.47;100.00;102970.64;1941107;74;31702;-68
2021/09/22 09:34:30;;;;;;;47.07;43.70;;;;;;;17.53;100.00;102953.23;1940951;74;31160;-67
2021/09/22 09:39:54;;;;;;;48.77;45.30;;;;;;;17.43;100.00;102956.02;1941053;74;31539;-68
2021/09/22 09:45:25;;;;;;;46.23;42.93;;;;;;;17.83;100.00;102949.59;1940896;74;31056;-68
2021/09/22 09:51:04;;;;;;;47.70;44.30;;;;;;;17.96;100.00;102937.75;1940921;74;31135;-68
2021/09/22 09:56:33;;;;;;;47.70;44.30;;;;;;;18.16;100.00;102932.91;1941103;74;31609;-67
2021/09/22 10:01:58;;;;;;;47.10;44.00;;;;;;;18.32;100.00;102917.38;1940944;74;31063;-67
2021/09/22 10:07:23;;;;;;;44.67;41.47;;;;;;;18.48;100.00;102903.54;1941082;74;31148;-68
2021/09/22 10:12:48;;;;;;;43.07;40.20;;;;;;;18.68;100.00;102894.16;1940927;74;31165;-68
2021/09/22 10:18:19;;;;;;;43.40;40.77;;;;;;;18.75;100.00;102889.89;1941287;74;31709;-68
2021/09/22 10:23:46;;;;;;;39.67;37.10;;;;;;;18.73;100.00;102878.66;1941124;74;31608;-68
2021/09/22 10:29:23;;;;;;;39.07;36.67;;;;;;;18.97;100.00;102883.83;1941167;74;33639;-70
2021/09/22 10:34:48;;;;;;;36.83;34.50;;;;;;;19.14;100.00;102873.56;1941140;74;31093;-68
2021/09/22 10:40:49;;;;;;;37.83;35.53;;;;;;;19.12;100.00;102870.21;1940915;74;31091;-69
2021/09/22 10:46:20;;;;;;;36.97;34.87;;;;;;;19.33;100.00;102866.09;1941014;74;31021;-68
2021/09/22 10:52:04;;;;;;;32.30;30.50;;;;;;;19.31;100.00;102852.28;1941131;74;31023;-68
2021/09/22 10:57:35;;;;;;;30.60;28.90;;;;;;;19.55;100.00;102847.55;1941097;74;31027;-67
2021/09/22 11:03:14;;;;;;;29.80;28.30;;;;;;;19.44;100.00;102844.58;1940894;74;31095;-68
2021/09/22 11:08:37;;;;;;;30.33;28.63;;;;;;;19.64;100.00;102832.83;1940934;74;31024;-67
2021/09/22 11:14:02;;;;;;;30.97;29.17;;;;;;;19.53;100.00;102830.67;1941083;74;31510;-68
2021/09/22 11:19:49;;;;;;;33.77;31.87;;;;;;;19.64;100.00;102814.51;2009739;71;31190;-68
2021/09/22 11:25:34;;;;;;;32.90;31.00;;;;;;;19.98;100.00;102808.98;2009732;71;30906;-67
2021/09/22 11:31:01;;;;;;;32.03;30.30;;;;;;;20.02;100.00;102803.61;1940872;74;31108;-69
2021/09/22 11:36:29;;;;;;;33.13;31.33;;;;;;;19.81;100.00;102787.48;1941081;74;31029;-69
2021/09/22 11:41:57;;;;;;;34.50;32.47;;;;;;;19.92;100.00;102791.88;1941095;74;33447;-68
2021/09/22 11:47:24;;;;;;;27.57;25.97;;;;;;;20.37;100.00;102783.94;1940961;74;31092;-67
2021/09/22 11:52:50;;;;;;;27.30;25.80;;;;;;;20.58;100.00;102779.66;1940927;74;31207;-67
2021/09/22 11:58:17;;;;;;;27.00;25.57;;;;;;;20.58;100.00;102765.55;1940925;74;31036;-71
2021/09/22 12:03:44;;;;;;;25.60;24.20;;;;;;;20.43;100.00;102766.64;1941097;74;31554;-67
2021/09/22 12:09:09;;;;;;;26.57;25.17;;;;;;;20.49;100.00;102746.23;1940879;74;31018;-68
2021/09/22 12:14:34;;;;;;;28.20;26.47;;;;;;;20.33;100.00;102751.25;1940925;74;31128;-67
2021/09/22 12:20:05;;;;;;;40.90;38.90;;;;;;;20.52;100.00;102742.78;1941087;74;31038;-68
2021/09/22 12:25:33;;;;;;;26.87;25.47;;;;;;;20.74;100.00;102733.11;1940846;74;31201;-69
2021/09/22 12:30:58;;;;;;;25.80;24.30;;;;;;;20.89;100.00;102733.39;1940845;74;31095;-67
2021/09/22 12:36:22;;;;;;;25.82;24.55;;;;;;;20.76;100.00;102722.31;1941041;74;31522;-68
2021/09/22 12:42:01;;;;;;;24.53;23.20;;;;;;;20.49;100.00;102713.77;1940904;74;31069;-67
2021/09/22 12:47:29;;;;;;;24.37;23.13;;;;;;;20.59;100.00;102719.79;1940884;74;31134;-68
2021/09/22 12:53:07;;;;;;;25.50;23.97;;;;;;;20.78;100.00;102710.16;1940956;74;31045;-68
2021/09/22 12:58:34;;;;;;;25.90;24.40;;;;;;;20.88;100.00;102697.23;1940930;74;31131;-69
2021/09/22 13:04:00;;;;;;;24.43;23.13;;;;;;;20.95;100.00;102685.55;1940958;74;31049;-69
2021/09/22 13:09:34;;;;;;;24.75;23.35;;;;;;;21.11;100.00;102684.11;1940868;74;31059;-68
2021/09/22 13:15:27;;;;;;;25.57;24.27;;;;;;;21.08;100.00;102675.42;2014804;71;30989;-68
2021/09/22 13:20:51;;;;;;;25.27;23.73;;;;;;;21.10;100.00;102670.27;1940905;74;31564;-69
2021/09/22 13:26:18;;;;;;;24.40;23.00;;;;;;;20.92;100.00;102667.82;1941015;74;33586;-68
2021/09/22 13:31:45;;;;;;;25.73;24.23;;;;;;;21.18;100.00;102651.23;1940880;74;31060;-68
2021/09/22 13:37:10;;;;;;;25.53;24.13;;;;;;;21.11;100.00;102652.17;1940913;74;31553;-67
2021/09/22 13:42:35;;;;;;;22.10;20.90;;;;;;;21.21;100.00;102642.96;1941021;74;31142;-68
2021/09/22 13:48:01;;;;;;;22.40;21.10;;;;;;;21.24;100.00;102639.50;1941105;74;31566;-71
2021/09/22 13:53:26;;;;;;;21.67;20.57;;;;;;;21.28;100.00;102627.83;1941113;74;31602;-69
2021/09/22 13:58:52;;;;;;;22.60;21.40;;;;;;;21.22;100.00;102629.67;1941043;74;31029;-67
2021/09/22 14:04:18;;;;;;;23.07;21.67;;;;;;;21.28;100.00;102618.50;1940982;74;31060;-67
2021/09/22 14:09:43;;;;;;;22.20;21.00;;;;;;;21.21;100.00;102621.77;1940896;74;31146;-67
2021/09/22 14:15:14;;;;;;;22.80;21.35;;;;;;;21.12;100.00;102615.16;1941109;74;31650;-66
2021/09/22 14:20:41;;;;;;;21.80;20.60;;;;;;;21.52;100.00;102605.56;1940915;74;31111;-67
2021/09/22 14:26:06;;;;;;;21.13;19.90;;;;;;;21.42;100.00;102596.72;1941044;74;31575;-68
2021/09/22 14:31:31;;;;;;;21.40;20.30;;;;;;;21.53;100.00;102593.07;1940882;74;31140;-68
2021/09/22 14:36:55;;;;;;;20.60;19.40;;;;;;;21.47;100.00;102578.23;1941051;74;31591;-68
2021/09/22 14:42:20;;;;;;;21.63;20.53;;;;;;;21.36;100.00;102562.63;1940978;74;31148;-68
2021/09/22 14:47:45;;;;;;;22.53;21.17;;;;;;;21.36;100.00;102566.88;1940887;74;31049;-68
2021/09/22 14:53:12;;;;;;;23.10;21.50;;;;;;;21.28;100.00;102563.38;1940953;74;31099;-68
2021/09/22 14:58:37;;;;;;;21.60;20.40;;;;;;;21.39;100.00;102549.86;1941121;74;33566;-68
2021/09/22 15:04:03;;;;;;;22.10;20.80;;;;;;;21.42;100.00;102541.58;1941034;74;31554;-67
2021/09/22 15:09:27;;;;;;;22.13;20.77;;;;;;;21.26;100.00;102545.34;1941014;74;31168;-70
2021/09/22 15:14:52;;;;;;;21.40;20.20;;;;;;;21.31;100.00;102538.70;1941162;74;31536;-70
2021/09/22 15:20:19;;;;;;;21.80;20.50;;;;;;;21.36;100.00;102547.08;1941144;74;31054;-70
2021/09/22 15:25:51;;;;;;;21.93;20.53;;;;;;;21.34;100.00;102528.20;1940953;74;31058;-70
2021/09/22 15:31:16;;;;;;;21.70;20.60;;;;;;;21.34;100.00;102527.63;1941133;74;31660;-69
2021/09/22 15:36:41;;;;;;;21.23;20.12;;;;;;;21.27;100.00;102531.44;1940951;74;31099;-67
2021/09/22 15:42:07;;;;;;;21.80;20.60;;;;;;;21.31;100.00;102516.09;1941148;74;31674;-67
2021/09/22 15:47:31;;;;;;;24.50;23.20;;;;;;;21.29;100.00;102520.66;1940925;74;31052;-67
2021/09/22 15:52:56;;;;;;;23.70;22.50;;;;;;;21.18;100.00;102514.16;1940874;74;31162;-68
2021/09/22 15:58:22;;;;;;;23.62;22.42;;;;;;;21.33;100.00;102508.14;1941154;74;31549;-68
2021/09/22 16:03:46;;;;;;;24.15;22.87;;;;;;;21.34;100.00;102507.00;1941063;74;31131;-68
2021/09/22 16:06:15;;;;;;;23.97;22.87;;;;;;;;;;1904884;75;24186;-71
2021/09/22 16:11:39;;;;;;;24.47;23.17;;;;;;;21.24;100.00;102507.22;1940913;74;31132;-68
2021/09/22 16:17:04;;;;;;;22.90;21.80;;;;;;;21.29;100.00;102509.36;1941077;74;31116;-72
2021/09/22 16:22:28;;;;;;;24.40;22.97;;;;;;;21.05;100.00;102521.44;1940816;74;31110;-69
2021/09/22 16:27:53;;;;;;;25.70;24.30;;;;;;;21.11;100.00;102523.02;1940902;74;31129;-71
2021/09/22 16:33:18;;;;;;;25.23;24.03;;;;;;;21.26;100.00;102517.64;1940907;74;31533;-70
2021/09/22 16:38:43;;;;;;;30.57;27.73;;;;;;;21.23;100.00;102504.97;1940982;74;31242;-70
2021/09/22 16:44:09;;;;;;;26.02;24.82;;;;;;;20.86;100.00;102489.66;1940908;74;31076;-69
2021/09/22 16:49:33;;;;;;;24.43;23.12;;;;;;;20.63;100.00;102461.05;1940919;74;31100;-69
2021/09/22 16:54:59;;;;;;;25.25;23.75;;;;;;;20.59;100.00;102450.13;1940933;74;31629;-69
2021/09/22 17:00:25;;;;;;;26.57;25.17;;;;;;;20.48;100.00;102443.87;1940863;74;31094;-71
2021/09/22 17:05:49;;;;;;;25.63;24.33;;;;;;;20.44;100.00;102448.47;1941382;74;31038;-69
2021/09/22 17:11:14;;;;;;;26.02;24.72;;;;;;;20.33;100.00;102452.05;1941185;74;31512;-75
2021/09/22 17:16:58;;;;;;;28.30;27.00;;;;;;;20.23;100.00;102455.06;2010183;71;32137;-69
2021/09/22 17:22:24;;;;;;;26.20;24.93;;;;;;;20.06;100.00;102455.39;1940923;74;31060;-70
2021/09/22 17:27:49;;;;;;;27.53;26.13;;;;;;;20.16;100.00;102459.42;1941198;74;31039;-70
2021/09/22 17:33:14;;;;;;;26.13;24.73;;;;;;;20.09;100.00;102468.30;1940994;74;31026;-76
2021/09/22 17:38:38;;;;;;;29.43;27.73;;;;;;;20.06;100.00;102468.09;1941076;74;31029;-65
2021/09/22 17:44:03;;;;;;;31.90;29.90;;;;;;;19.97;100.00;102468.80;1940934;74;31032;-68
2021/09/22 17:49:28;;;;;;;31.97;30.17;;;;;;;19.88;100.00;102463.61;1941007;74;31007;-76
2021/09/22 17:54:52;;;;;;;30.83;29.03;;;;;;;19.61;100.00;102475.34;1941079;74;31011;-68
2021/09/22 18:00:19;;;;;;;34.27;32.37;;;;;;;19.51;100.00;102479.19;1940962;74;31020;-77
2021/09/22 18:05:45;;;;;;;34.90;33.00;;;;;;;19.29;100.00;102476.95;1940958;74;31075;-77
2021/09/22 18:11:10;;;;;;;31.60;29.90;;;;;;;19.21;100.00;102472.57;1941182;74;31483;-76
2021/09/22 18:16:34;;;;;;;33.73;31.73;;;;;;;19.18;100.00;102472.59;1941026;74;31087;-68
2021/09/22 18:21:59;;;;;;;31.53;29.83;;;;;;;18.96;100.00;102476.56;1940970;74;31517;-77
2021/09/22 18:27:24;;;;;;;33.50;31.70;;;;;;;18.89;100.00;102467.66;1941024;74;31543;-75
2021/09/22 18:32:48;;;;;;;33.77;31.87;;;;;;;18.86;100.00;102469.11;1941172;74;31153;-78
2021/09/22 18:38:13;;;;;;;33.33;31.40;;;;;;;18.44;100.00;102465.64;1941100;74;31491;-77
2021/09/22 18:43:39;;;;;;;36.30;34.27;;;;;;;18.23;100.00;102471.22;1941000;74;31072;-77
2021/09/22 18:49:04;;;;;;;35.90;33.87;;;;;;;18.35;100.00;102470.84;1941053;74;31078;-77
2021/09/22 18:54:35;;;;;;;35.90;33.80;;;;;;;18.15;100.00;102472.72;1941090;74;31626;-78
2021/09/22 19:00:00;;;;;;;36.40;34.30;;;;;;;17.92;100.00;102466.50;1941109;74;31509;-77
2021/09/22 19:05:25;;;;;;;37.00;34.63;;;;;;;17.82;100.00;102467.98;1941013;74;31005;-68
2021/09/22 19:10:50;;;;;;;37.83;35.37;;;;;;;17.82;100.00;102468.55;1941036;74;33092;-74
2021/09/22 19:16:16;;;;;;;38.67;36.37;;;;;;;17.83;100.00;102467.42;1941021;74;31033;-74
2021/09/22 19:21:41;;;;;;;40.10;37.47;;;;;;;17.44;100.00;102470.23;1941145;74;31041;-67
2021/09/22 19:27:08;;;;;;;42.90;40.27;;;;;;;17.35;100.00;102486.87;1941226;74;31531;-68
2021/09/22 19:32:33;;;;;;;44.93;42.17;;;;;;;17.45;100.00;102490.18;1941128;74;31117;-68
2021/09/22 19:37:58;;;;;;;47.10;44.10;;;;;;;16.95;100.00;102485.69;1940981;74;31044;-77
2021/09/22 19:43:23;;;;;;;44.53;41.83;;;;;;;17.03;100.00;102484.52;1941172;74;31152;-67
2021/09/22 19:48:49;;;;;;;46.10;43.30;;;;;;;16.75;100.00;102481.86;1941141;74;33464;-76
2021/09/22 19:54:15;;;;;;;46.47;43.57;;;;;;;16.90;100.00;102473.91;1941065;74;31122;-66
2021/09/22 19:59:40;;;;;;;45.23;42.53;;;;;;;16.94;100.00;102472.80;1941101;74;33098;-75
2021/09/22 20:05:11;;;;;;;44.77;42.13;;;;;;;16.89;100.00;102471.42;1941257;74;31061;-68
2021/09/22 20:10:36;;;;;;;44.00;41.30;;;;;;;16.84;100.00;102461.05;1941252;74;31536;-67
2021/09/22 20:16:00;;;;;;;43.50;40.70;;;;;;;16.84;100.00;102452.63;1941092;74;31037;-74
2021/09/22 20:21:25;;;;;;;44.80;41.60;;;;;;;16.71;100.00;102454.66;1941136;74;31659;-75
2021/09/22 20:26:50;;;;;;;44.50;41.70;;;;;;;16.62;100.00;102454.41;1940956;74;33145;-73
2021/09/22 20:32:16;;;;;;;45.70;42.77;;;;;;;16.55;100.00;102460.03;1940998;74;31122;-72
2021/09/22 20:37:43;;;;;;;44.33;41.53;;;;;;;16.47;100.00;102456.42;1941143;74;33571;-68
2021/09/22 20:43:10;;;;;;;48.10;45.00;;;;;;;16.14;100.00;102457.89;1940925;74;31140;-73
2021/09/22 20:48:36;;;;;;;48.53;45.30;;;;;;;15.86;100.00;102459.34;1940947;74;31095;-67
2021/09/22 20:54:02;;;;;;;47.70;44.43;;;;;;;15.90;100.00;102451.50;1941226;74;31569;-74
2021/09/22 20:59:27;;;;;;;49.90;46.50;;;;;;;15.68;100.00;102445.91;1940958;74;31042;-74
2021/09/22 21:04:54;;;;;;;48.33;45.17;;;;;;;15.77;100.00;102449.27;1941027;74;33104;-69
2021/09/22 21:10:19;;;;;;;50.33;47.03;;;;;;;15.62;100.00;102448.41;1940974;74;31101;-73
2021/09/22 21:15:45;;;;;;;49.30;45.90;;;;;;;15.51;100.00;102442.55;1941017;74;31046;-68
2021/09/22 21:21:10;;;;;;;50.10;46.57;;;;;;;15.33;100.00;102434.94;1941078;74;31675;-67
2021/09/22 21:26:34;;;;;;;53.30;49.90;;;;;;;15.44;100.00;102435.25;1941070;74;31097;-73
2021/09/22 21:31:59;;;;;;;50.20;46.90;;;;;;;15.34;100.00;102433.83;1940924;74;31107;-72
2021/09/22 21:37:23;;;;;;;50.47;47.17;;;;;;;15.30;100.00;102436.91;1940930;74;33054;-73
2021/09/22 21:42:48;;;;;;;50.47;47.03;;;;;;;14.99;100.00;102428.17;1941009;74;31028;-72
2021/09/22 21:48:13;;;;;;;50.80;47.30;;;;;;;14.90;100.00;102425.62;1940916;74;33048;-68
2021/09/22 21:53:38;;;;;;;50.67;47.30;;;;;;;14.90;100.00;102406.88;1941002;74;31047;-72
2021/09/22 21:59:03;;;;;;;47.10;44.00;;;;;;;15.24;100.00;102416.16;1940939;74;31078;-74
2021/09/22 22:04:47;;;;;;;47.07;43.87;;;;;;;15.27;100.00;102413.67;2018584;71;31460;-68
2021/09/22 22:10:15;;;;;;;46.53;43.57;;;;;;;15.23;100.00;102413.92;1940909;74;33080;-73
2021/09/22 22:15:40;;;;;;;46.83;43.57;;;;;;;15.19;100.00;102417.00;1940964;74;32996;-76
2021/09/22 22:21:11;;;;;;;46.40;43.30;;;;;;;14.88;100.00;102413.88;1940877;74;33102;-68